EDT,Max TemperatureF,Mean TemperatureF,Min TemperatureF,Max Dew PointF,MeanDew PointF,Min DewpointF,Max Humidity, Mean Humidity, Min Humidity, Max Sea Level PressureIn, Mean Sea Level PressureIn, Min Sea Level PressureIn, Max VisibilityMiles, Mean VisibilityMiles, Min VisibilityMiles, Max Wind SpeedMPH, Mean Wind SpeedMPH, Max Gust SpeedMPH,PrecipitationIn, CloudCover, Events, WindDirDegrees
2013-3-1,44,38,34,30,27,24,80,60,50,29.92,29.88,29.84,10,10,10,6,2,,0.00,8,,292
2013-3-2,44,36,28,28,23,17,90,58,42,29.94,29.88,29.82,10,10,10,12,2,18,0.00,6,,338
2013-3-3,42,34,25,20,17,14,72,50,39,29.99,29.93,29.88,10,10,10,10,4,17,0.00,3,,320
2013-3-4,53,38,23,21,13,8,73,42,16,30.11,30.04,29.98,10,10,10,9,2,,0.00,0,,284
2013-3-5,50,40,32,43,34,21,99,80,47,30.06,29.90,29.61,10,8,1,7,1,,0.46,7,Rain,92
2013-3-6,47,41,35,38,29,25,97,68,46,30.08,29.81,29.59,10,10,4,16,6,28,0.09,5,Rain,318
2013-3-7,48,40,31,29,27,24,76,59,45,30.27,30.17,30.08,10,10,10,12,5,20,0.00,4,,324
2013-3-8,54,42,29,26,24,21,83,50,28,30.32,30.25,30.19,10,10,7,10,5,18,0.00,1,,314
2013-3-9,61,42,24,33,28,22,96,63,29,30.36,30.30,30.24,10,10,10,5,0,,0.00,0,,95
2013-3-10,67,47,27,34,30,25,96,57,25,30.32,30.25,30.18,10,10,7,7,1,,0.00,0,,194
2013-3-11,65,50,34,53,41,25,86,64,35,30.21,30.06,29.89,10,10,10,13,2,24,0.00,4,Rain,172
2013-3-12,66,54,40,58,46,30,99,70,37,29.99,29.84,29.74,10,9,5,12,5,16,0.51,4,Rain,250
2013-3-13,52,40,27,32,25,14,98,58,31,30.16,30.05,29.98,10,10,7,17,4,25,0.00,2,,287
2013-3-14,52,40,27,23,16,14,65,40,22,30.25,30.18,30.13,10,10,10,13,5,22,0.00,1,,307
2013-3-15,62,44,27,35,27,19,82,50,31,30.18,30.04,29.88,10,10,10,20,4,24,0.00,0,,230
2013-3-16,78,60,43,55,43,35,74,55,30,29.87,29.77,29.63,10,10,7,17,5,26,0.01,1,Rain,244
2013-3-17,59,48,37,51,43,37,100,89,72,30.19,30.02,29.84,10,8,1,9,3,16,0.00,7,Rain,48
2013-3-18,38,36,35,38,36,35,99,98,94,30.20,30.09,29.88,10,4,2,7,3,,0.14,8,Rain,41
2013-3-19,64,48,33,44,26,5,100,56,15,30.05,29.90,29.82,10,8,0,20,4,32,0.03,2,Fog,271
2013-3-20,55,40,26,22,15,6,74,35,18,30.10,29.96,29.78,10,10,10,14,3,18,0.00,2,,242
2013-3-21,48,38,27,27,14,8,62,42,29,30.00,29.85,29.77,10,10,10,10,5,21,0.00,4,,321
2013-3-22,50,34,17,22,14,10,86,46,21,30.07,30.00,29.95,10,10,7,10,3,,0.00,0,,261
2013-3-23,55,42,28,34,27,19,90,60,33,30.06,29.99,29.90,10,10,10,5,0,,0.00,5,,230
2013-3-24,37,34,32,36,34,31,99,93,83,29.93,29.76,29.59,10,7,2,9,2,18,0.25,6,Rain-Snow,32
2013-3-25,46,39,32,36,28,20,100,70,38,29.81,29.64,29.56,10,9,2,15,4,26,0.00,7,Rain-Snow,268
2013-3-26,47,38,30,28,26,24,87,60,41,30.14,29.95,29.81,10,10,10,13,5,18,0.00,5,,297
2013-3-27,48,38,28,27,23,19,87,57,33,30.24,30.19,30.13,10,10,5,14,5,23,0.00,2,,296
2013-3-28,54,39,24,26,22,20,92,56,28,30.29,30.23,30.18,10,10,10,12,3,22,0.00,0,,314
2013-3-29,61,42,23,32,25,21,95,52,22,30.34,30.25,30.15,10,10,10,10,2,16,0.00,2,,274
2013-3-30,64,48,31,34,30,26,94,55,23,30.26,30.16,30.08,10,10,7,8,1,,0.00,2,,148
2013-3-31,64,52,39,55,48,34,100,86,66,30.08,29.91,29.81,10,8,1,12,2,,0.20,6,Rain,236